Time;durP1;ratioP1;P1;durP2;ratioP2;P2;SDS_P1;SDS_P2;PMS_P1;PMS_P2;Temp;Humidity;BMP_temperature;BMP_pressure;BME280_temperature;BME280_humidity;BME280_pressure;Samples;Min_cycle;Max_cycle;Signal;HPM_P1;HPM_P2
2022/01/11 00:01:14;;;;;;;43.28;17.23;;;;;;;0.41;100.00;103006.59;5074973;28;20630;-76
2022/01/11 00:03:41;;;;;;;43.35;18.23;;;;;;;0.37;100.00;103003.81;5057295;28;20109;-76
2022/01/11 00:06:32;;;;;;;45.10;16.75;;;;;;;0.36;100.00;102997.72;5054920;28;20029;-77
2022/01/11 00:08:58;;;;;;;44.35;17.85;;;;;;;0.34;100.00;103014.16;5066675;28;20475;-74
2022/01/11 00:11:24;;;;;;;42.65;17.67;;;;;;;0.34;100.00;103015.03;5066138;28;20032;-76
2022/01/11 00:13:49;;;;;;;49.80;18.23;;;;;;;0.33;100.00;103005.44;5054093;28;20538;-77
2022/01/11 00:16:14;;;;;;;51.85;19.17;;;;;;;0.37;100.00;103003.81;5054611;28;20029;-77
2022/01/11 00:18:40;;;;;;;49.55;18.13;;;;;;;0.39;100.00;103021.28;5060144;28;20031;-74
2022/01/11 00:21:05;;;;;;;46.30;18.10;;;;;;;0.36;100.00;103022.88;5073886;28;20475;-71
2022/01/11 00:25:57;;;;;;;51.15;19.23;;;;;;;0.41;100.00;103037.88;5074419;28;20032;-75
2022/01/11 00:28:28;;;;;;;46.92;17.90;;;;;;;0.42;100.00;103026.59;5074244;28;20476;-75
2022/01/11 00:30:54;;;;;;;52.60;18.98;;;;;;;0.41;100.00;103039.56;5072717;28;20024;-72
2022/01/11 00:33:32;;;;;;;52.38;18.08;;;;;;;0.37;100.00;103038.59;5074342;28;20024;-72
2022/01/11 00:35:59;;;;;;;53.05;19.33;;;;;;;0.39;100.00;103043.84;5061549;28;20111;-76
2022/01/11 00:38:31;;;;;;;52.20;18.75;;;;;;;0.44;100.00;103043.16;5054057;28;20033;-76
2022/01/11 00:40:58;;;;;;;;;;;;;;;0.51;100.00;103030.34;5067974;28;20099;-75
2022/01/11 00:43:25;;;;;;;51.30;18.33;;;;;;;0.56;100.00;103033.97;5073359;28;20431;-72
2022/01/11 00:45:52;;;;;;;49.72;18.65;;;;;;;0.55;100.00;103040.91;5073979;28;20434;-71
2022/01/11 00:48:18;;;;;;;53.15;18.25;;;;;;;0.56;100.00;103034.84;5073820;28;20047;-71
2022/01/11 00:50:44;;;;;;;48.25;19.63;;;;;;;0.56;100.00;103027.03;5073626;28;20399;-73
2022/01/11 00:53:10;;;;;;;45.88;17.75;;;;;;;0.56;100.00;103029.63;5073447;28;20472;-73
2022/01/11 00:55:37;;;;;;;46.17;17.92;;;;;;;0.57;100.00;103039.22;5073458;28;20036;-71
2022/01/11 00:58:03;;;;;;;47.63;17.25;;;;;;;0.49;100.00;103038.97;5073685;28;20029;-71
2022/01/11 01:00:29;;;;;;;47.60;18.20;;;;;;;0.51;100.00;103046.84;5073651;28;20376;-71
2022/01/11 01:02:54;;;;;;;42.35;17.17;;;;;;;0.53;100.00;103033.88;5072893;28;20028;-75
2022/01/11 01:05:21;;;;;;;53.70;19.23;;;;;;;0.56;100.00;103040.06;5073590;28;20025;-72
2022/01/11 01:07:48;;;;;;;45.38;17.35;;;;;;;0.58;100.00;103034.91;5073869;28;20017;-74
2022/01/11 01:10:26;;;;;;;44.13;17.00;;;;;;;0.56;100.00;103034.84;5073256;28;20032;-73
2022/01/11 01:12:53;;;;;;;45.75;18.10;;;;;;;0.62;100.00;103039.38;5072514;28;20460;-71
2022/01/11 01:15:20;;;;;;;44.63;17.85;;;;;;;0.64;100.00;103042.94;5073199;28;20032;-70
2022/01/11 01:17:46;;;;;;;42.10;17.58;;;;;;;0.61;100.00;103035.88;5073226;28;20067;-73
2022/01/11 01:20:11;;;;;;;47.35;19.50;;;;;;;0.57;100.00;103031.41;5073305;28;20052;-75
2022/01/11 01:22:37;;;;;;;45.78;19.38;;;;;;;0.58;100.00;103034.91;5061713;28;20023;-71
2022/01/11 01:25:03;;;;;;;46.38;17.25;;;;;;;0.60;100.00;103035.84;5072418;28;20028;-71
2022/01/11 01:27:29;;;;;;;46.95;18.85;;;;;;;0.58;100.00;103032.31;5073121;28;20032;-71
2022/01/11 01:29:54;;;;;;;49.67;19.20;;;;;;;0.58;100.00;103041.00;5073349;28;20025;-72
2022/01/11 01:32:19;;;;;;;55.30;19.67;;;;;;;0.61;100.00;103050.66;5072950;28;20025;-71
2022/01/11 01:34:45;;;;;;;50.53;20.25;;;;;;;0.65;100.00;103042.97;5072453;28;20400;-74
2022/01/11 01:37:10;;;;;;;49.25;19.00;;;;;;;0.68;100.00;103046.50;5072930;28;20075;-71
2022/01/11 01:39:35;;;;;;;48.85;19.80;;;;;;;0.65;100.00;103042.97;5072943;28;20020;-75
2022/01/11 01:42:03;;;;;;;52.58;19.55;;;;;;;0.65;100.00;103042.06;5072141;28;20048;-71
2022/01/11 01:44:30;;;;;;;49.03;19.08;;;;;;;0.70;100.00;103044.84;5071966;28;20040;-74
2022/01/11 01:46:56;;;;;;;53.67;19.65;;;;;;;0.63;100.00;103049.84;5073099;28;20036;-73
2022/01/11 01:49:23;;;;;;;51.17;19.83;;;;;;;0.65;100.00;103047.28;5072849;28;20024;-71
2022/01/11 01:51:49;;;;;;;50.13;18.88;;;;;;;0.66;100.00;103051.69;5072704;28;20364;-71
2022/01/11 01:54:14;;;;;;;53.60;19.77;;;;;;;0.63;100.00;103042.03;5072517;28;20020;-71
2022/01/11 01:56:40;;;;;;;51.35;19.70;;;;;;;0.62;100.00;103050.69;5071855;28;20033;-74
2022/01/11 01:59:06;;;;;;;50.42;19.45;;;;;;;0.65;100.00;103053.41;5072578;28;20020;-73
2022/01/11 02:01:40;;;;;;;52.78;20.50;;;;;;;0.65;100.00;103058.63;5072686;28;20391;-71
2022/01/11 02:04:05;;;;;;;52.88;21.15;;;;;;;0.69;100.00;103051.78;5072680;28;20029;-76
2022/01/11 02:06:31;;;;;;;49.47;20.17;;;;;;;0.70;100.00;103055.28;5071856;28;20050;-72
2022/01/11 02:08:56;;;;;;;54.47;20.48;;;;;;;0.67;100.00;103055.19;5072634;28;20028;-76
2022/01/11 02:11:23;;;;;;;58.47;22.25;;;;;;;0.68;100.00;103057.84;5072073;28;20027;-71
2022/01/11 02:13:49;;;;;;;66.95;24.13;;;;;;;0.62;100.00;103052.44;5072470;28;20024;-71
2022/01/11 02:16:15;;;;;;;60.22;21.90;;;;;;;0.62;100.00;103047.22;5072212;28;20032;-73
2022/01/11 02:18:42;;;;;;;51.97;21.13;;;;;;;0.65;100.00;103060.34;5072408;28;20078;-76
2022/01/11 02:21:07;;;;;;;54.45;20.15;;;;;;;0.66;100.00;103072.53;5072454;28;20052;-73
2022/01/11 02:23:32;;;;;;;52.88;20.38;;;;;;;0.65;100.00;103075.97;5072468;28;20510;-71
2022/01/11 02:25:58;;;;;;;57.13;20.85;;;;;;;0.67;100.00;103076.06;5072046;28;20039;-73
2022/01/11 02:28:26;;;;;;;60.45;21.77;;;;;;;0.66;100.00;103075.16;5071595;28;20027;-75
2022/01/11 02:30:52;;;;;;;61.10;22.65;;;;;;;0.68;100.00;103072.59;5072564;28;20025;-71
2022/01/11 02:33:34;;;;;;;51.78;20.30;;;;;;;0.68;100.00;103078.72;5072440;28;20094;-75
2022/01/11 02:36:03;;;;;;;56.53;21.80;;;;;;;0.74;100.00;103072.78;5072021;28;20024;-70
2022/01/11 02:38:29;;;;;;;54.90;20.83;;;;;;;0.73;100.00;103064.09;5071730;28;20039;-71
2022/01/11 02:40:54;;;;;;;58.15;20.33;;;;;;;0.73;100.00;103061.47;5071972;28;20028;-75
2022/01/11 02:43:20;;;;;;;52.83;20.50;;;;;;;0.71;100.00;103067.47;5071814;28;20045;-74
2022/01/11 02:45:45;;;;;;;52.60;20.33;;;;;;;0.70;100.00;103068.31;5070390;28;20422;-74
2022/01/11 02:48:11;;;;;;;56.60;21.23;;;;;;;0.70;100.00;103068.31;5071876;28;20032;-75
2022/01/11 02:50:36;;;;;;;56.80;21.45;;;;;;;0.68;100.00;103070.88;5071764;28;20460;-73
2022/01/11 02:53:02;;;;;;;55.42;22.08;;;;;;;0.68;100.00;103078.72;5072318;28;20025;-74
2022/01/11 02:55:28;;;;;;;58.28;21.90;;;;;;;0.69;100.00;103072.66;5075867;28;20614;-71
2022/01/11 02:57:55;;;;;;;58.78;21.80;;;;;;;0.71;100.00;103068.34;5075066;28;20111;-73
2022/01/11 03:00:22;;;;;;;58.58;22.52;;;;;;;0.74;100.00;103071.09;5064178;28;20041;-74
2022/01/11 03:02:48;;;;;;;62.45;21.65;;;;;;;0.78;100.00;103072.03;5059790;28;20087;-75
2022/01/11 03:05:13;;;;;;;59.45;22.80;;;;;;;0.80;100.00;103083.41;5075807;28;20469;-72
2022/01/11 03:07:41;;;;;;;65.60;24.00;;;;;;;0.79;100.00;103082.53;5075475;28;20057;-71
2022/01/11 03:10:20;;;;;;;62.30;22.92;;;;;;;0.84;100.00;103085.28;5075246;28;20032;-76
2022/01/11 03:12:46;;;;;;;68.63;24.25;;;;;;;0.87;100.00;103088.00;5075722;28;20027;-73
2022/01/11 03:15:12;;;;;;;65.50;22.45;;;;;;;0.86;100.00;103096.66;5075453;28;20028;-76
2022/01/11 03:17:38;;;;;;;58.97;22.88;;;;;;;0.87;100.00;103097.53;5075238;28;20376;-73
2022/01/11 03:20:05;;;;;;;63.72;23.25;;;;;;;0.86;100.00;103096.66;5074495;28;20457;-71
2022/01/11 03:22:30;;;;;;;58.95;22.23;;;;;;;0.86;100.00;103093.16;5075244;28;20057;-74
2022/01/11 03:24:56;;;;;;;66.68;22.75;;;;;;;0.87;100.00;103097.53;5075351;28;20028;-74
2022/01/11 03:27:21;;;;;;;65.60;22.73;;;;;;;0.87;100.00;103088.00;5075403;28;20021;-73
2022/01/11 03:29:46;;;;;;;59.67;22.88;;;;;;;0.88;100.00;103089.75;5074826;28;20040;-75
2022/01/11 03:32:16;;;;;;;56.10;20.38;;;;;;;0.86;100.00;103098.38;5075198;28;20392;-74
2022/01/11 03:34:45;;;;;;;65.70;23.58;;;;;;;0.79;100.00;103090.38;5075396;28;20086;-71
2022/01/11 03:37:13;;;;;;;69.97;24.85;;;;;;;0.77;100.00;103101.59;5075207;28;20029;-75
2022/01/11 03:39:38;;;;;;;66.18;23.35;;;;;;;0.75;100.00;103088.47;5074801;28;20036;-71
2022/01/11 03:42:04;;;;;;;71.65;24.50;;;;;;;0.71;100.00;103085.75;5074664;28;20063;-71
2022/01/11 03:44:29;;;;;;;61.60;22.85;;;;;;;0.68;100.00;103093.44;5074833;28;20126;-72
2022/01/11 03:46:55;;;;;;;69.97;23.77;;;;;;;0.65;100.00;103092.53;5074991;28;20028;-71
2022/01/11 03:49:20;;;;;;;60.63;23.45;;;;;;;0.68;100.00;103086.53;5074786;28;20395;-71
2022/01/11 03:51:49;;;;;;;66.60;22.50;;;;;;;0.69;100.00;103080.47;5074648;28;20012;-72
2022/01/11 03:54:22;;;;;;;64.95;22.85;;;;;;;0.64;100.00;103072.50;5074591;28;20099;-71
2022/01/11 03:56:47;;;;;;;61.80;21.63;;;;;;;0.61;100.00;103072.38;5075034;28;20029;-70
2022/01/11 03:59:13;;;;;;;59.35;23.30;;;;;;;0.56;100.00;103066.13;5067252;28;20103;-74
2022/01/11 04:01:38;;;;;;;65.82;23.10;;;;;;;0.49;100.00;103065.06;5074621;28;20032;-72
2022/01/11 04:04:05;;;;;;;60.15;21.90;;;;;;;0.49;100.00;103062.44;5074725;28;20024;-71
2022/01/11 04:06:30;;;;;;;60.58;22.48;;;;;;;0.42;100.00;103063.09;5074608;28;20532;-76
2022/01/11 04:08:57;;;;;;;64.72;23.15;;;;;;;0.40;100.00;103072.56;5074350;28;20108;-75
2022/01/11 04:11:22;;;;;;;57.88;21.83;;;;;;;0.36;100.00;103070.72;5074733;28;20117;-71
2022/01/11 04:13:48;;;;;;;56.15;21.88;;;;;;;0.35;100.00;103070.66;5074304;28;20103;-71
2022/01/11 04:16:16;;;;;;;60.35;21.98;;;;;;;0.32;100.00;103079.25;5074296;28;20024;-71
2022/01/11 04:18:41;;;;;;;59.03;23.42;;;;;;;0.31;100.00;103080.97;5074300;28;20491;-71
2022/01/11 04:21:07;;;;;;;60.53;23.80;;;;;;;0.29;100.00;103080.00;5074077;28;20055;-71
2022/01/11 04:23:33;;;;;;;60.28;22.90;;;;;;;0.27;100.00;103089.53;5073996;28;20099;-71
2022/01/11 04:25:59;;;;;;;56.70;22.75;;;;;;;0.29;100.00;103092.19;5074585;28;20357;-75
2022/01/11 04:28:25;;;;;;;65.63;24.02;;;;;;;0.31;100.00;103095.72;5074602;28;20024;-72
2022/01/11 04:30:52;;;;;;;65.95;24.70;;;;;;;0.30;100.00;103093.94;5073824;28;20032;-71
2022/01/11 04:33:19;;;;;;;64.88;24.30;;;;;;;0.30;100.00;103081.78;5069541;28;20116;-73
2022/01/11 04:35:48;;;;;;;73.93;26.73;;;;;;;0.35;100.00;103083.69;5072030;28;20016;-73
2022/01/11 04:38:16;;;;;;;78.43;28.58;;;;;;;0.37;100.00;103088.13;5074006;28;20047;-72
2022/01/11 04:40:41;;;;;;;72.45;26.65;;;;;;;0.37;100.00;103076.78;5073749;28;20033;-73
2022/01/11 04:43:06;;;;;;;78.57;27.40;;;;;;;0.36;100.00;103073.31;5073858;28;20131;-76
2022/01/11 04:45:32;;;;;;;72.30;27.17;;;;;;;0.37;100.00;103082.00;5073638;28;20035;-71
2022/01/11 04:47:57;;;;;;;71.60;26.63;;;;;;;0.39;100.00;103088.16;5073655;28;20024;-71
2022/01/11 04:50:25;;;;;;;75.68;26.05;;;;;;;0.42;100.00;103096.97;5074091;28;20032;-71
2022/01/11 04:52:50;;;;;;;66.70;25.17;;;;;;;0.44;100.00;103086.59;5073574;28;20096;-71
2022/01/11 04:55:16;;;;;;;67.22;25.52;;;;;;;0.45;100.00;103078.81;5073644;28;20154;-75
2022/01/11 04:57:41;;;;;;;66.95;25.00;;;;;;;0.51;100.00;103090.28;5073669;28;20040;-73
2022/01/11 05:00:08;;;;;;;62.60;25.23;;;;;;;0.49;100.00;103085.91;5073682;28;20020;-72
2022/01/11 05:02:33;;;;;;;59.65;23.73;;;;;;;0.51;100.00;103085.94;5072625;28;20024;-74
2022/01/11 05:04:58;;;;;;;57.53;23.20;;;;;;;0.51;100.00;103085.06;5073527;28;20020;-73
2022/01/11 05:07:24;;;;;;;56.90;22.50;;;;;;;0.48;100.00;103089.34;5073535;28;20483;-70
2022/01/11 05:09:51;;;;;;;59.85;22.60;;;;;;;0.51;100.00;103088.56;5073513;28;20108;-72
2022/01/11 05:12:16;;;;;;;58.70;23.17;;;;;;;0.51;100.00;103087.69;5072786;28;20017;-74
2022/01/11 05:14:41;;;;;;;54.75;23.25;;;;;;;0.51;100.00;103083.34;5073365;28;20375;-72
2022/01/11 05:17:07;;;;;;;56.47;24.30;;;;;;;0.49;100.00;103087.66;5072536;28;20487;-71
2022/01/11 05:19:32;;;;;;;61.38;23.48;;;;;;;0.50;100.00;103086.81;5073215;28;20095;-75
2022/01/11 05:21:57;;;;;;;51.47;22.42;;;;;;;0.48;100.00;103089.34;5072821;28;20463;-76
2022/01/11 05:24:23;;;;;;;53.85;22.05;;;;;;;0.49;100.00;103098.06;5072353;28;20031;-72
2022/01/11 05:26:48;;;;;;;52.90;22.10;;;;;;;0.48;100.00;103091.06;5073300;28;20090;-75
2022/01/11 05:29:13;;;;;;;52.80;23.10;;;;;;;0.48;100.00;103097.16;5072969;28;20575;-77
2022/01/11 05:31:39;;;;;;;56.58;23.67;;;;;;;0.51;100.00;103091.16;5073055;28;20035;-73
2022/01/11 05:34:04;;;;;;;54.65;23.90;;;;;;;0.53;100.00;103093.84;5072168;28;20044;-74
2022/01/11 05:36:29;;;;;;;49.67;21.33;;;;;;;0.53;100.00;103080.81;5072857;28;20029;-77
2022/01/11 05:38:55;;;;;;;49.38;22.17;;;;;;;0.54;100.00;103093.00;5072878;28;20099;-76
2022/01/11 05:41:20;;;;;;;53.15;22.48;;;;;;;0.58;100.00;103097.50;5070869;28;20044;-77
2022/01/11 05:43:46;;;;;;;49.08;22.85;;;;;;;0.56;100.00;103088.72;5071991;28;20036;-77
2022/01/11 05:46:11;;;;;;;53.50;23.08;;;;;;;0.57;100.00;103093.09;5072872;28;20872;-71
2022/01/11 05:48:37;;;;;;;60.40;25.73;;;;;;;0.58;100.00;103094.88;5072686;28;20029;-71
2022/01/11 05:51:02;;;;;;;67.88;27.90;;;;;;;0.60;100.00;103099.31;5072537;28;20021;-73
2022/01/11 05:53:28;;;;;;;59.38;23.65;;;;;;;0.61;100.00;103100.19;5072146;28;20629;-72
2022/01/11 05:55:53;;;;;;;56.42;23.38;;;;;;;0.63;100.00;103103.75;5071959;28;20126;-71
2022/01/11 05:58:19;;;;;;;58.05;23.42;;;;;;;0.63;100.00;103106.34;5072381;28;20380;-71
2022/01/11 06:00:44;;;;;;;54.47;24.45;;;;;;;0.61;100.00;103092.38;5072421;28;20108;-71
2022/01/11 06:03:09;;;;;;;65.35;25.90;;;;;;;0.61;100.00;103095.84;5072204;28;20077;-75
2022/01/11 06:05:38;;;;;;;58.50;23.02;;;;;;;0.62;100.00;103100.22;5071635;28;20063;-74
2022/01/11 06:08:05;;;;;;;49.78;20.02;;;;;;;0.60;100.00;103101.91;5089840;28;20020;-77
2022/01/11 06:10:30;;;;;;;41.45;19.73;;;;;;;0.63;100.00;103098.53;5092523;28;20020;-75
2022/01/11 06:12:56;;;;;;;42.53;20.48;;;;;;;0.62;100.00;103095.00;5092398;28;20038;-72
2022/01/11 06:15:21;;;;;;;42.42;20.02;;;;;;;0.66;100.00;103101.22;5082672;28;20020;-71
2022/01/11 06:17:46;;;;;;;52.47;22.58;;;;;;;0.61;100.00;103113.22;5072283;28;20034;-74
2022/01/11 06:20:12;;;;;;;47.00;21.35;;;;;;;0.62;100.00;103128.91;5072146;28;20037;-71
2022/01/11 06:22:37;;;;;;;47.03;19.95;;;;;;;0.64;100.00;103118.56;5070792;28;20041;-72
2022/01/11 06:25:04;;;;;;;40.30;19.00;;;;;;;0.64;100.00;103121.16;5071931;28;20452;-72
2022/01/11 06:27:31;;;;;;;42.00;18.02;;;;;;;0.64;100.00;103115.97;5070117;28;20028;-71
2022/01/11 06:29:57;;;;;;;43.05;18.92;;;;;;;0.61;100.00;103124.53;5075907;28;20025;-73
2022/01/11 06:32:22;;;;;;;45.55;19.42;;;;;;;0.62;100.00;103131.53;5076477;28;20021;-76
2022/01/11 06:34:47;;;;;;;41.90;19.25;;;;;;;0.62;100.00;103131.53;5076230;28;20024;-72
2022/01/11 06:37:13;;;;;;;41.42;18.58;;;;;;;0.64;100.00;103135.09;5075152;28;20525;-78
2022/01/11 06:39:39;;;;;;;41.03;18.35;;;;;;;0.68;100.00;103127.34;5074486;28;20031;-75
2022/01/11 06:42:05;;;;;;;38.17;17.90;;;;;;;0.68;100.00;103143.00;5075958;28;20040;-71
2022/01/11 06:44:31;;;;;;;35.00;17.13;;;;;;;0.64;100.00;103145.50;5076123;28;20044;-71
2022/01/11 06:46:56;;;;;;;35.65;18.52;;;;;;;0.67;100.00;103149.94;5075380;28;20040;-74
2022/01/11 06:49:21;;;;;;;36.95;17.58;;;;;;;0.67;100.00;103143.84;5076099;28;20490;-71
2022/01/11 06:51:47;;;;;;;40.40;18.77;;;;;;;0.69;100.00;103145.69;5075865;28;20024;-73
2022/01/11 06:54:12;;;;;;;35.35;17.85;;;;;;;0.72;100.00;103152.72;5075987;28;20025;-71
2022/01/11 06:56:38;;;;;;;35.28;17.33;;;;;;;0.77;100.00;103145.94;5075541;28;20101;-70
2022/01/11 06:59:04;;;;;;;42.13;18.05;;;;;;;0.80;100.00;103149.50;5075339;28;20029;-73
2022/01/11 07:01:29;;;;;;;35.50;18.02;;;;;;;0.83;100.00;103153.94;5075948;28;20108;-71
2022/01/11 07:03:55;;;;;;;33.75;17.05;;;;;;;0.84;100.00;103150.50;5075793;28;20472;-70
2022/01/11 07:06:20;;;;;;;32.40;15.68;;;;;;;0.85;100.00;103157.50;5075465;28;20024;-71
2022/01/11 07:08:45;;;;;;;32.30;16.35;;;;;;;0.85;100.00;103160.09;5074878;28;20381;-76
2022/01/11 07:11:12;;;;;;;32.83;15.88;;;;;;;0.86;100.00;103161.88;5068845;28;20103;-79
2022/01/11 07:13:38;;;;;;;28.77;14.20;;;;;;;0.90;100.00;103160.25;5073623;28;20021;-78
2022/01/11 07:16:03;;;;;;;33.72;14.93;;;;;;;0.85;100.00;103154.00;5074109;28;20033;-77
2022/01/11 07:18:28;;;;;;;34.97;17.25;;;;;;;0.81;100.00;103169.53;5075096;28;20044;-79
2022/01/11 07:20:54;;;;;;;32.78;16.00;;;;;;;0.81;100.00;103166.06;5074773;28;20028;-76
2022/01/11 07:23:19;;;;;;;34.15;15.77;;;;;;;0.80;100.00;103170.38;5075232;28;20099;-78
2022/01/11 07:25:45;;;;;;;32.58;15.77;;;;;;;0.78;100.00;103187.72;5075450;28;20048;-78
2022/01/11 07:28:12;;;;;;;32.63;15.30;;;;;;;0.72;100.00;103184.00;5076858;28;20071;-77
2022/01/11 07:30:37;;;;;;;29.70;14.70;;;;;;;0.72;100.00;103192.72;5075695;28;20047;-78
2022/01/11 07:33:03;;;;;;;35.13;16.00;;;;;;;0.70;100.00;103188.28;5059699;28;20021;-79
2022/01/11 07:35:28;;;;;;;30.50;15.30;;;;;;;0.68;100.00;103189.94;5063023;28;20024;-78
2022/01/11 07:37:54;;;;;;;31.60;15.32;;;;;;;0.66;100.00;103192.50;5079687;28;20040;-76
2022/01/11 07:40:20;;;;;;;34.60;15.07;;;;;;;0.65;100.00;103190.72;5075096;28;20024;-81
2022/01/11 07:42:46;;;;;;;30.13;14.48;;;;;;;0.65;100.00;103182.88;5074823;28;20412;-79
2022/01/11 07:45:11;;;;;;;28.83;13.63;;;;;;;0.64;100.00;103182.03;5078529;28;20043;-79
2022/01/11 07:47:37;;;;;;;28.20;14.43;;;;;;;0.64;100.00;103188.97;5061480;28;20036;-78
2022/01/11 07:50:03;;;;;;;27.45;13.35;;;;;;;0.65;100.00;103201.16;5069630;28;20794;-79
2022/01/11 07:52:29;;;;;;;28.63;14.20;;;;;;;0.62;100.00;103199.31;5074755;28;20383;-77
2022/01/11 07:54:54;;;;;;;28.65;14.77;;;;;;;0.60;100.00;103198.41;5074590;28;20028;-79
2022/01/11 07:57:19;;;;;;;28.98;13.98;;;;;;;0.61;100.00;103196.66;5070241;28;20400;-79
2022/01/11 07:59:45;;;;;;;27.20;13.13;;;;;;;0.61;100.00;103189.72;5070837;28;20032;-74
2022/01/11 08:02:11;;;;;;;32.42;14.38;;;;;;;0.60;100.00;103194.88;5071031;28;20052;-77
2022/01/11 08:04:36;;;;;;;30.17;14.40;;;;;;;0.58;100.00;103201.78;5072844;28;20020;-76
2022/01/11 08:07:02;;;;;;;31.27;14.07;;;;;;;0.60;100.00;103198.41;5074595;28;20016;-78
2022/01/11 08:09:28;;;;;;;35.83;14.80;;;;;;;0.60;100.00;103200.09;5074450;28;20436;-77
2022/01/11 08:11:56;;;;;;;30.00;13.25;;;;;;;0.61;100.00;103196.66;5071576;28;20496;-79
2022/01/11 08:14:22;;;;;;;29.17;13.65;;;;;;;0.63;100.00;103205.44;5054578;28;20440;-79
2022/01/11 08:16:48;;;;;;;26.13;13.35;;;;;;;0.63;100.00;103206.31;5070611;28;20476;-78
2022/01/11 08:19:13;;;;;;;27.70;12.75;;;;;;;0.64;100.00;103208.09;5074784;28;20064;-79
2022/01/11 08:21:38;;;;;;;26.05;12.48;;;;;;;0.66;100.00;103215.97;5071740;28;20032;-75
2022/01/11 08:24:04;;;;;;;25.63;12.85;;;;;;;0.67;100.00;103209.03;5065841;28;20097;-75
2022/01/11 08:26:30;;;;;;;28.70;14.27;;;;;;;0.67;100.00;103215.13;5073455;28;20033;-80
2022/01/11 08:28:55;;;;;;;27.73;13.05;;;;;;;0.68;100.00;103214.31;5071645;28;20391;-80
2022/01/11 08:31:20;;;;;;;26.00;12.70;;;;;;;0.68;100.00;103221.22;5071352;28;20099;-73
2022/01/11 08:33:46;;;;;;;28.27;12.85;;;;;;;0.72;100.00;103225.75;5068078;28;20028;-76
2022/01/11 08:36:12;;;;;;;27.80;13.07;;;;;;;0.70;100.00;103216.97;5076976;28;20035;-79
2022/01/11 08:38:38;;;;;;;25.05;13.05;;;;;;;0.66;100.00;103218.56;5073486;28;20060;-77
2022/01/11 08:41:03;;;;;;;29.00;13.50;;;;;;;0.69;100.00;103229.13;5074164;28;20024;-79
2022/01/11 08:43:28;;;;;;;25.02;12.70;;;;;;;0.67;100.00;103214.25;5073809;28;20045;-78
2022/01/11 08:45:54;;;;;;;26.58;12.98;;;;;;;0.68;100.00;103223.84;5073591;28;20089;-76
2022/01/11 08:48:20;;;;;;;25.75;12.93;;;;;;;0.68;100.00;103232.56;5073991;28;20059;-78
2022/01/11 08:50:45;;;;;;;25.75;12.65;;;;;;;0.73;100.00;103232.69;5073345;28;20023;-76
2022/01/11 08:53:11;;;;;;;23.95;11.88;;;;;;;0.76;100.00;103227.63;5061235;28;20143;-80
2022/01/11 08:55:36;;;;;;;30.40;12.85;;;;;;;0.79;100.00;103215.56;5067600;28;20568;-77
2022/01/11 08:58:02;;;;;;;27.25;13.23;;;;;;;0.80;100.00;103214.72;5071140;28;20494;-78
2022/01/11 09:00:27;;;;;;;27.98;12.00;;;;;;;0.80;100.00;103225.13;5072029;28;20017;-75
2022/01/11 09:02:53;;;;;;;30.45;12.98;;;;;;;0.82;100.00;103220.88;5072632;28;20028;-74
2022/01/11 09:05:19;;;;;;;24.85;12.65;;;;;;;0.86;100.00;103215.75;5074127;28;20249;-73
2022/01/11 09:07:45;;;;;;;21.60;11.98;;;;;;;0.89;100.00;103224.56;5072633;28;20073;-74
2022/01/11 09:10:11;;;;;;;23.90;12.07;;;;;;;0.88;100.00;103230.63;5071661;28;20031;-76
2022/01/11 09:12:37;;;;;;;24.13;11.13;;;;;;;0.89;100.00;103237.63;5066230;28;20029;-74
2022/01/11 09:15:05;;;;;;;24.67;11.63;;;;;;;0.96;100.00;103242.22;5053559;28;20032;-79
2022/01/11 09:17:30;;;;;;;23.55;11.20;;;;;;;0.96;99.64;103246.56;5061328;28;20020;-78
2022/01/11 09:19:56;;;;;;;27.42;12.73;;;;;;;0.99;100.00;103246.66;5073216;28;20051;-74
2022/01/11 09:22:21;;;;;;;24.85;12.65;;;;;;;1.01;99.58;103231.03;5065239;28;20025;-79
2022/01/11 09:24:47;;;;;;;26.63;12.63;;;;;;;1.03;99.75;103234.59;5053532;28;20372;-75
2022/01/11 09:27:13;;;;;;;25.00;12.55;;;;;;;1.01;99.96;103234.56;5069668;28;20032;-71
2022/01/11 09:29:38;;;;;;;25.10;12.23;;;;;;;1.04;99.78;103233.78;5075189;28;20056;-77
2022/01/11 09:32:06;;;;;;;27.67;12.50;;;;;;;1.10;99.88;103231.34;5071889;28;20075;-75
2022/01/11 09:34:31;;;;;;;23.48;11.50;;;;;;;1.14;99.51;103241.06;5072900;28;20036;-76
2022/01/11 09:36:57;;;;;;;24.70;11.73;;;;;;;1.19;99.01;103246.41;5073157;28;20028;-76
2022/01/11 09:39:24;;;;;;;22.95;11.48;;;;;;;1.27;98.71;103247.56;5071954;28;20196;-76
2022/01/11 09:41:49;;;;;;;21.88;12.10;;;;;;;1.52;99.57;103250.97;5072078;28;20123;-73
2022/01/11 09:44:15;;;;;;;22.98;10.15;;;;;;;2.02;99.28;103242.91;5073063;28;20094;-70
2022/01/11 09:46:41;;;;;;;20.70;10.93;;;;;;;2.33;95.04;103235.94;5072706;28;20032;-76
2022/01/11 09:49:06;;;;;;;23.67;11.32;;;;;;;2.40;92.49;103245.75;5072646;28;20032;-76
2022/01/11 09:51:33;;;;;;;22.13;11.75;;;;;;;2.58;93.42;103237.50;5072256;28;20033;-71
2022/01/11 09:53:59;;;;;;;20.92;10.82;;;;;;;3.52;92.84;103232.00;5072497;28;20017;-74
2022/01/11 09:56:24;;;;;;;20.50;10.30;;;;;;;4.29;85.13;103229.28;5072343;28;20031;-77
2022/01/11 09:58:50;;;;;;;21.58;10.77;;;;;;;4.62;82.08;103231.66;5072998;28;20032;-75
2022/01/11 10:01:15;;;;;;;19.75;9.93;;;;;;;5.04;80.19;103235.03;5071833;28;20111;-73
2022/01/11 10:04:03;;;;;;;16.08;9.57;;;;;;;5.94;76.35;103229.34;5072763;28;20033;-74
2022/01/11 10:06:29;;;;;;;18.05;10.13;;;;;;;6.73;71.58;103235.53;5072746;28;20067;-77
2022/01/11 10:09:12;;;;;;;17.27;9.18;;;;;;;7.17;69.16;103235.06;5072482;28;20020;-73
2022/01/11 10:11:41;;;;;;;16.83;9.65;;;;;;;7.61;66.80;103228.34;5069482;28;20111;-70
2022/01/11 10:14:34;;;;;;;16.45;9.32;;;;;;;7.78;65.64;103225.78;5059329;28;20115;-80
2022/01/11 10:17:19;;;;;;;16.13;9.48;;;;;;;7.94;65.16;103236.41;5072523;28;20036;-76
2022/01/11 10:20:12;;;;;;;17.27;9.88;;;;;;;8.14;64.44;103239.13;5069664;28;20101;-71
2022/01/11 10:22:55;;;;;;;17.58;10.10;;;;;;;8.61;61.84;103251.63;5071051;28;20025;-75
2022/01/11 10:25:20;;;;;;;16.73;9.73;;;;;;;8.84;61.70;103251.69;5068368;28;20027;-76
2022/01/11 10:27:56;;;;;;;19.17;10.60;;;;;;;8.91;61.33;103254.31;5058955;28;20108;-72
2022/01/11 10:30:23;;;;;;;16.00;9.80;;;;;;;9.35;58.83;103256.09;5073138;28;20024;-77
2022/01/11 10:32:50;;;;;;;20.73;10.13;;;;;;;9.39;59.23;103257.00;5067149;28;20052;-76
2022/01/11 10:35:26;;;;;;;14.90;9.50;;;;;;;9.59;57.63;103263.13;5071517;28;20032;-74
2022/01/11 10:38:00;;;;;;;17.27;9.65;;;;;;;9.63;56.67;103269.28;5072388;28;20028;-77
2022/01/11 10:40:35;;;;;;;16.63;9.48;;;;;;;9.71;56.63;103271.94;5070682;28;20020;-71
2022/01/11 10:43:08;;;;;;;17.02;8.82;;;;;;;9.91;55.50;103262.16;5072133;28;20132;-76
2022/01/11 10:45:37;;;;;;;17.48;9.88;;;;;;;9.69;56.15;103279.84;5072726;28;20035;-77
2022/01/11 10:48:05;;;;;;;17.05;9.77;;;;;;;9.43;55.22;103258.75;5071138;28;20025;-76
2022/01/11 10:50:34;;;;;;;18.35;9.50;;;;;;;9.51;57.14;103259.59;5072554;28;20037;-78
2022/01/11 10:53:03;;;;;;;17.25;9.93;;;;;;;9.63;56.74;103251.66;5072308;28;20032;-79
2022/01/11 10:55:31;;;;;;;17.83;10.00;;;;;;;9.29;57.16;103246.41;5071513;28;20060;-72
2022/01/11 10:58:00;;;;;;;15.65;9.15;;;;;;;9.42;56.40;103259.63;5072154;28;20029;-76
2022/01/11 11:00:46;;;;;;;19.88;9.75;;;;;;;9.60;56.80;103262.22;5071576;28;20032;-76
2022/01/11 11:03:14;;;;;;;19.15;9.98;;;;;;;9.58;55.14;103258.72;5069675;28;20041;-77
2022/01/11 11:05:46;;;;;;;16.92;10.00;;;;;;;9.97;55.17;103254.22;5064564;28;20056;-74
2022/01/11 11:08:12;;;;;;;14.65;9.10;;;;;;;9.75;55.38;103253.38;5072225;28;20028;-76
2022/01/11 11:10:47;;;;;;;16.27;9.30;;;;;;;9.75;54.59;103255.16;5071487;28;20115;-76
2022/01/11 11:13:20;;;;;;;17.63;9.50;;;;;;;9.60;55.46;103254.28;5065160;28;20529;-77